Time;durP1;ratioP1;P1;durP2;ratioP2;P2;SDS_P1;SDS_P2;PMS_P1;PMS_P2;Temp;Humidity;BMP_temperature;BMP_pressure;BME280_temperature;BME280_humidity;BME280_pressure;Samples;Min_cycle;Max_cycle;Signal;HPM_P1;HPM_P2
2022/08/20 00:00:24;;;;;;;0.30;0.30;;;23.60;93.40;;;;;;4972055;28;20034;-73
2022/08/20 00:03:01;;;;;;;0.20;0.20;;;23.50;93.60;;;;;;4972018;28;20161;-73
2022/08/20 00:05:34;;;;;;;1.25;0.95;;;23.40;93.80;;;;;;4972179;28;20065;-73
2022/08/20 00:08:00;;;;;;;2.03;0.45;;;23.30;94.00;;;;;;4954773;28;20034;-73
2022/08/20 00:10:28;;;;;;;0.43;0.40;;;23.00;94.40;;;;;;4971699;28;20356;-73
2022/08/20 00:12:55;;;;;;;0.80;0.55;;;22.80;95.10;;;;;;4972063;28;20081;-73
2022/08/20 00:15:28;;;;;;;0.17;0.17;;;22.70;95.40;;;;;;4972044;28;20034;-73
2022/08/20 00:17:56;;;;;;;0.98;0.95;;;22.70;95.60;;;;;;4970728;28;20041;-73
2022/08/20 00:20:25;;;;;;;0.20;0.20;;;22.70;95.60;;;;;;4970644;28;20679;-73
2022/08/20 00:22:51;;;;;;;0.43;0.43;;;22.60;96.00;;;;;;4970534;28;20031;-73
2022/08/20 00:25:17;;;;;;;0.10;0.10;;;22.50;96.40;;;;;;4970850;28;20041;-73
2022/08/20 00:27:43;;;;;;;0.20;0.20;;;22.50;96.60;;;;;;4971638;28;20074;-73
2022/08/20 00:30:12;;;;;;;0.20;0.20;;;22.60;96.90;;;;;;4971948;28;20027;-73
2022/08/20 00:33:02;;;;;;;0.10;0.10;;;22.60;97.00;;;;;;4974395;28;20680;-73
2022/08/20 00:35:32;;;;;;;0.10;0.10;;;22.70;96.80;;;;;;4974519;28;20487;-73
2022/08/20 00:37:58;;;;;;;0.50;0.40;;;22.80;96.80;;;;;;4974645;28;20035;-73
2022/08/20 00:40:38;;;;;;;0.82;0.52;;;22.80;96.80;;;;;;4975538;28;20119;-73
2022/08/20 00:43:22;;;;;;;0.10;0.00;;;22.70;96.90;;;;;;4975276;28;20102;-73
2022/08/20 00:45:49;;;;;;;0.20;0.20;;;22.60;97.10;;;;;;4975516;28;20033;-73
2022/08/20 00:48:15;;;;;;;1.55;0.35;;;22.50;97.50;;;;;;4975577;28;20035;-73
2022/08/20 00:50:41;;;;;;;1.65;1.23;;;22.50;97.70;;;;;;4975372;28;20369;-73
2022/08/20 00:53:07;;;;;;;0.20;0.20;;;22.50;98.00;;;;;;4974091;28;20041;-73
2022/08/20 00:55:35;;;;;;;0.05;0.05;;;22.40;98.10;;;;;;4975378;28;20034;-72
2022/08/20 00:58:08;;;;;;;2.15;0.70;;;22.40;98.30;;;;;;4973956;28;20053;-73
2022/08/20 01:00:45;;;;;;;0.00;0.00;;;22.40;98.50;;;;;;4974236;28;20094;-73
2022/08/20 01:03:15;;;;;;;0.45;0.40;;;22.40;98.90;;;;;;4973957;28;20039;-73
2022/08/20 01:05:46;;;;;;;1.77;0.65;;;22.30;99.20;;;;;;4977273;28;20052;-73
2022/08/20 01:08:15;;;;;;;0.32;0.22;;;22.40;99.40;;;;;;4972584;28;20490;-73
2022/08/20 01:10:46;;;;;;;0.20;0.20;;;22.30;99.90;;;;;;4992943;28;20105;-73
2022/08/20 01:13:19;;;;;;;0.30;0.30;;;22.20;99.90;;;;;;4992717;28;20035;-73
2022/08/20 01:15:50;;;;;;;1.02;0.50;;;22.20;99.90;;;;;;4984594;28;20117;-73
2022/08/20 01:18:23;;;;;;;0.25;0.25;;;22.10;99.90;;;;;;4958068;28;20035;-73
2022/08/20 01:20:59;;;;;;;0.30;0.28;;;22.00;99.90;;;;;;4958081;28;20031;-73
2022/08/20 01:23:53;;;;;;;0.20;0.20;;;21.90;99.90;;;;;;4960870;28;20022;-73
2022/08/20 01:26:33;;;;;;;0.50;0.30;;;21.90;99.90;;;;;;4994141;28;20471;-73
2022/08/20 01:29:13;;;;;;;0.10;0.10;;;21.90;99.90;;;;;;4994189;28;20065;-73
2022/08/20 01:31:41;;;;;;;0.10;0.10;;;21.90;99.90;;;;;;4994202;28;20030;-73
2022/08/20 01:34:13;;;;;;;0.00;0.00;;;22.00;99.90;;;;;;4992725;28;20034;-73
2022/08/20 01:36:42;;;;;;;1.13;0.60;;;21.90;99.90;;;;;;4992869;28;20057;-73
2022/08/20 01:39:13;;;;;;;0.52;0.40;;;21.90;99.90;;;;;;4993957;28;20109;-73
2022/08/20 01:42:00;;;;;;;;;;;21.80;99.90;;;;;;4979486;28;20454;-73
2022/08/20 01:44:26;;;;;;;0.20;0.20;;;21.90;99.90;;;;;;4973432;28;19957;-74
2022/08/20 01:46:56;;;;;;;1.25;0.88;;;21.90;99.90;;;;;;4957190;28;20058;-73
2022/08/20 01:49:31;;;;;;;0.40;0.40;;;22.00;99.90;;;;;;4957451;28;20042;-73
2022/08/20 01:52:06;;;;;;;0.60;0.35;;;22.00;99.90;;;;;;4957471;28;20610;-73
2022/08/20 01:54:33;;;;;;;1.60;0.25;;;22.10;99.90;;;;;;4957818;28;20632;-73
2022/08/20 01:57:12;;;;;;;0.20;0.20;;;22.10;99.90;;;;;;4973912;28;20042;-73
2022/08/20 01:59:39;;;;;;;1.98;1.02;;;22.20;99.90;;;;;;4957453;28;20030;-73
2022/08/20 02:02:05;;;;;;;0.47;0.47;;;22.30;99.90;;;;;;4956882;28;20039;-73
2022/08/20 02:04:33;;;;;;;0.35;0.25;;;22.30;99.90;;;;;;4974160;28;20026;-73
2022/08/20 02:07:03;;;;;;;1.08;0.45;;;22.30;99.90;;;;;;4972433;23;20479;-65
2022/08/20 02:09:35;;;;;;;0.55;0.13;;;22.20;99.90;;;;;;4965082;28;20050;-67
2022/08/20 02:12:03;;;;;;;1.05;0.98;;;22.20;99.90;;;;;;4988323;28;20121;-63
2022/08/20 02:14:29;;;;;;;0.25;0.25;;;22.20;99.90;;;;;;4975306;28;20039;-66
2022/08/20 02:16:57;;;;;;;0.63;0.57;;;22.10;99.90;;;;;;4987643;28;20042;-66
2022/08/20 02:19:42;;;;;;;0.32;0.32;;;22.10;99.90;;;;;;4973678;28;20037;-66
2022/08/20 02:22:25;;;;;;;0.20;0.20;;;22.10;99.90;;;;;;4971486;28;20054;-66
2022/08/20 02:24:52;;;;;;;0.47;0.35;;;22.10;99.90;;;;;;4972483;28;20074;-66
2022/08/20 02:27:18;;;;;;;0.32;0.20;;;22.10;99.90;;;;;;4973465;28;20058;-66
2022/08/20 02:29:45;;;;;;;0.25;0.25;;;22.10;99.90;;;;;;4972133;28;20035;-66
2022/08/20 02:32:11;;;;;;;0.90;0.73;;;22.10;99.90;;;;;;4971921;28;20086;-66
2022/08/20 02:34:37;;;;;;;0.10;0.10;;;22.10;99.90;;;;;;4972168;28;20039;-66
2022/08/20 02:37:06;;;;;;;0.35;0.30;;;22.10;99.90;;;;;;4972088;28;20395;-67
2022/08/20 02:39:33;;;;;;;0.22;0.22;;;22.10;99.90;;;;;;4973369;28;20027;-66
2022/08/20 02:41:59;;;;;;;0.30;0.30;;;22.10;99.90;;;;;;4971660;28;20067;-66
2022/08/20 02:44:24;;;;;;;0.00;0.00;;;21.90;99.90;;;;;;4971633;28;20034;-66
2022/08/20 02:46:50;;;;;;;0.38;0.38;;;21.80;99.90;;;;;;4973364;28;20498;-66
2022/08/20 02:49:17;;;;;;;0.60;0.60;;;21.60;99.90;;;;;;4972982;28;20026;-66
2022/08/20 02:51:44;;;;;;;0.65;0.65;;;21.60;99.90;;;;;;4955976;28;20522;-66
2022/08/20 02:54:11;;;;;;;0.00;0.00;;;21.60;99.90;;;;;;4972645;28;20113;-66
2022/08/20 02:56:38;;;;;;;4.15;0.70;;;21.60;99.90;;;;;;4973187;28;20078;-66
2022/08/20 02:59:04;;;;;;;0.50;0.50;;;21.60;99.90;;;;;;4971363;28;20060;-66
2022/08/20 03:01:30;;;;;;;0.10;0.10;;;21.60;99.90;;;;;;4972859;28;20038;-66
2022/08/20 03:03:58;;;;;;;1.55;0.75;;;21.60;99.90;;;;;;4972392;28;20026;-66
2022/08/20 03:06:25;;;;;;;1.00;0.95;;;21.60;99.90;;;;;;4983193;28;20023;-66
2022/08/20 03:08:52;;;;;;;0.25;0.22;;;21.50;99.90;;;;;;4971128;28;20026;-66
2022/08/20 03:11:19;;;;;;;2.42;2.03;;;21.30;99.90;;;;;;4972657;28;20513;-66
2022/08/20 03:13:45;;;;;;;0.30;0.30;;;21.40;99.90;;;;;;4972421;28;20035;-66
2022/08/20 03:16:12;;;;;;;0.30;0.30;;;21.40;99.90;;;;;;4975330;28;20038;-66
2022/08/20 03:18:43;;;;;;;1.75;0.52;;;21.40;99.90;;;;;;4955135;28;20475;-66
2022/08/20 03:21:11;;;;;;;5.57;0.93;;;21.40;99.90;;;;;;4972506;28;20094;-66
2022/08/20 03:23:38;;;;;;;0.45;0.38;;;21.40;99.90;;;;;;4986928;28;20035;-66
2022/08/20 03:26:06;;;;;;;0.30;0.30;;;21.50;99.90;;;;;;4987299;28;20030;-66
2022/08/20 03:28:32;;;;;;;0.50;0.50;;;21.40;99.90;;;;;;4971028;28;20033;-66
2022/08/20 03:30:59;;;;;;;1.48;0.85;;;21.40;99.90;;;;;;4970943;28;20030;-66
2022/08/20 03:33:26;;;;;;;0.30;0.30;;;21.40;99.90;;;;;;4987036;28;20035;-66
2022/08/20 03:35:53;;;;;;;0.38;0.38;;;21.30;99.90;;;;;;4970951;28;20030;-65
2022/08/20 03:38:22;;;;;;;0.60;0.60;;;21.30;99.90;;;;;;4954850;28;20035;-66
2022/08/20 03:40:49;;;;;;;1.27;0.88;;;21.30;99.90;;;;;;4970918;28;20019;-66
2022/08/20 03:43:15;;;;;;;4.75;1.35;;;21.20;99.90;;;;;;4972008;28;20027;-67
2022/08/20 03:45:44;;;;;;;0.57;0.45;;;21.20;99.90;;;;;;4970875;28;20035;-65
2022/08/20 03:48:15;;;;;;;0.45;0.45;;;21.20;99.90;;;;;;4972052;28;20060;-65
2022/08/20 03:50:41;;;;;;;;;;;21.20;99.90;;;;;;4972430;28;20018;-65
2022/08/20 03:53:12;;;;;;;1.58;0.63;;;21.20;99.90;;;;;;4971570;28;20321;-66
2022/08/20 03:55:39;;;;;;;3.33;1.52;;;21.20;99.90;;;;;;4970746;28;20027;-66
2022/08/20 03:58:09;;;;;;;0.88;0.68;;;21.10;99.90;;;;;;4971841;28;20027;-66
2022/08/20 04:00:44;;;;;;;0.00;0.00;;;21.20;99.90;;;;;;4970398;28;20553;-66
2022/08/20 04:03:10;;;;;;;0.20;0.20;;;21.30;99.90;;;;;;4971751;28;20101;-66
2022/08/20 04:05:39;;;;;;;0.65;0.65;;;21.30;99.90;;;;;;4969970;28;20070;-66
2022/08/20 04:08:20;;;;;;;1.45;1.23;;;21.30;99.90;;;;;;4970297;28;20034;-66
2022/08/20 04:10:48;;;;;;;0.10;0.10;;;21.30;99.90;;;;;;4971798;28;20030;-67
2022/08/20 04:13:15;;;;;;;0.52;0.45;;;21.00;99.90;;;;;;4970176;28;20046;-66
2022/08/20 04:15:41;;;;;;;0.77;0.73;;;21.10;99.90;;;;;;4960079;28;20477;-66
2022/08/20 04:18:08;;;;;;;0.40;0.20;;;21.00;99.90;;;;;;4952428;28;20039;-67
2022/08/20 04:20:37;;;;;;;0.63;0.63;;;21.00;99.90;;;;;;4952358;29;20487;-66
2022/08/20 04:23:04;;;;;;;0.17;0.17;;;21.10;99.90;;;;;;4952091;29;20061;-66
2022/08/20 04:25:32;;;;;;;0.38;0.35;;;21.00;99.90;;;;;;4967207;28;20027;-66
2022/08/20 04:28:00;;;;;;;0.15;0.15;;;21.00;99.90;;;;;;4967017;28;20035;-66
2022/08/20 04:30:27;;;;;;;0.63;0.63;;;21.00;99.90;;;;;;4966915;28;20027;-66
2022/08/20 04:32:54;;;;;;;1.67;0.77;;;21.00;99.90;;;;;;4966831;28;20035;-66
2022/08/20 04:35:23;;;;;;;0.22;0.22;;;20.90;99.90;;;;;;4966740;28;20083;-67
2022/08/20 04:38:00;;;;;;;0.20;0.20;;;21.00;99.90;;;;;;4952216;29;20066;-65
2022/08/20 04:43:12;;;;;;;0.30;0.30;;;20.90;99.90;;;;;;4952062;29;20403;-66
2022/08/20 04:45:37;;;;;;;0.55;0.45;;;21.00;99.90;;;;;;4951926;29;20066;-66
2022/08/20 04:48:05;;;;;;;0.88;0.20;;;20.90;99.90;;;;;;4952099;29;20070;-65
2022/08/20 04:50:37;;;;;;;0.20;0.20;;;20.90;99.90;;;;;;4952057;29;20220;-66
2022/08/20 04:53:06;;;;;;;0.30;0.22;;;21.00;99.90;;;;;;4966527;28;20031;-66
2022/08/20 04:55:34;;;;;;;0.15;0.15;;;21.00;99.90;;;;;;4952100;29;20042;-66
2022/08/20 04:58:29;;;;;;;0.15;0.15;;;20.90;99.90;;;;;;4966742;28;20372;-66
2022/08/20 05:00:58;;;;;;;0.32;0.32;;;21.00;99.90;;;;;;4964109;28;20414;-66
2022/08/20 05:03:25;;;;;;;0.05;0.05;;;21.00;99.90;;;;;;4951749;29;20034;-66
2022/08/20 05:05:52;;;;;;;0.38;0.38;;;20.90;99.90;;;;;;4966465;28;20428;-66
2022/08/20 05:08:22;;;;;;;0.20;0.20;;;21.00;99.90;;;;;;4952040;29;20035;-66
2022/08/20 05:10:49;;;;;;;0.57;0.55;;;20.90;99.90;;;;;;4940978;28;20399;-67
2022/08/20 05:13:16;;;;;;;0.75;0.60;;;21.00;99.90;;;;;;4971350;28;20031;-66
2022/08/20 05:15:44;;;;;;;3.20;1.77;;;21.00;99.90;;;;;;4971495;28;20022;-66
2022/08/20 05:18:11;;;;;;;0.00;0.00;;;21.00;99.90;;;;;;4974649;28;20030;-66
2022/08/20 05:20:40;;;;;;;0.20;0.20;;;21.00;99.90;;;;;;4974501;28;20038;-66
2022/08/20 05:23:09;;;;;;;1.85;0.85;;;21.00;99.90;;;;;;4973260;28;20030;-66
2022/08/20 05:25:37;;;;;;;1.33;0.95;;;21.10;99.90;;;;;;4971998;28;20073;-66
2022/08/20 05:28:13;;;;;;;0.38;0.22;;;21.00;99.90;;;;;;4981998;28;20030;-66
2022/08/20 05:30:45;;;;;;;0.20;0.17;;;21.10;99.90;;;;;;4947519;28;20368;-66
2022/08/20 05:33:18;;;;;;;0.47;0.20;;;21.10;99.90;;;;;;4969293;28;20043;-68
2022/08/20 05:35:46;;;;;;;0.08;0.08;;;21.20;99.90;;;;;;4972474;28;20490;-68
2022/08/20 05:38:17;;;;;;;0.20;0.20;;;21.20;99.90;;;;;;4972678;28;20735;-64
2022/08/20 05:40:43;;;;;;;1.58;1.23;;;21.10;99.90;;;;;;4956582;28;20042;-75
2022/08/20 05:43:10;;;;;;;1.58;1.20;;;21.20;99.90;;;;;;4973810;28;20415;-70
2022/08/20 05:45:40;;;;;;;0.25;0.25;;;21.10;99.90;;;;;;4956330;28;20380;-72
2022/08/20 05:48:09;;;;;;;0.13;0.13;;;21.10;99.90;;;;;;4972617;28;20421;-71
2022/08/20 05:50:36;;;;;;;0.57;0.55;;;21.10;99.90;;;;;;4973832;28;20031;-71
2022/08/20 05:53:03;;;;;;;0.00;0.00;;;21.20;99.90;;;;;;4973779;28;20130;-71
2022/08/20 05:55:29;;;;;;;0.30;0.30;;;21.30;99.90;;;;;;4972685;28;20054;-71
2022/08/20 05:58:00;;;;;;;0.17;0.17;;;21.30;99.90;;;;;;4988770;28;20138;-72
2022/08/20 06:00:28;;;;;;;0.82;0.60;;;21.40;99.90;;;;;;4988340;28;20376;-71
2022/08/20 06:05:39;;;;;;;0.85;0.47;;;21.50;99.90;;;;;;4973879;28;20117;-72
2022/08/20 06:08:08;;;;;;;0.60;0.57;;;21.60;99.90;;;;;;4973382;28;20131;-73
2022/08/20 06:10:35;;;;;;;0.25;0.22;;;21.60;99.90;;;;;;4973478;28;20030;-72
2022/08/20 06:13:01;;;;;;;0.05;0.05;;;21.70;99.90;;;;;;4972050;28;20085;-72
2022/08/20 06:15:29;;;;;;;0.38;0.28;;;21.80;99.90;;;;;;4972432;28;20023;-72
2022/08/20 06:17:55;;;;;;;0.30;0.30;;;22.00;99.90;;;;;;4972169;28;20566;-71
2022/08/20 06:20:21;;;;;;;0.13;0.13;;;22.10;99.90;;;;;;4972228;28;20039;-72
2022/08/20 06:22:47;;;;;;;0.77;0.63;;;22.10;99.90;;;;;;4973068;28;20499;-72
2022/08/20 06:25:13;;;;;;;0.20;0.17;;;22.30;99.90;;;;;;4973298;28;20038;-72
2022/08/20 06:27:42;;;;;;;0.55;0.25;;;22.40;99.90;;;;;;4970904;28;20027;-70
2022/08/20 06:30:12;;;;;;;0.93;0.68;;;22.50;99.90;;;;;;4971546;28;20030;-71
2022/08/20 06:32:38;;;;;;;0.40;0.27;;;22.70;99.90;;;;;;4972678;28;20049;-71
2022/08/20 06:35:08;;;;;;;4.07;0.68;;;22.80;99.90;;;;;;4973112;28;20041;-72
2022/08/20 06:37:36;;;;;;;0.73;0.73;;;22.80;99.90;;;;;;4987694;28;20041;-73
2022/08/20 06:40:09;;;;;;;0.10;0.10;;;22.90;99.90;;;;;;4972900;28;20031;-62
2022/08/20 06:42:35;;;;;;;0.08;0.08;;;23.10;99.90;;;;;;4987299;28;20049;-64
2022/08/20 06:45:04;;;;;;;0.10;0.10;;;23.20;99.90;;;;;;4971399;28;20039;-65
2022/08/20 06:47:31;;;;;;;0.75;0.75;;;23.10;99.90;;;;;;4978972;28;20035;-71
2022/08/20 06:49:57;;;;;;;0.20;0.10;;;23.10;99.90;;;;;;4963632;28;20026;-65
2022/08/20 06:52:23;;;;;;;0.00;0.00;;;23.10;99.90;;;;;;4959450;28;20038;-71
2022/08/20 06:54:49;;;;;;;0.70;0.35;;;23.10;99.90;;;;;;4952046;29;20041;-73
2022/08/20 06:57:16;;;;;;;0.80;0.80;;;23.00;99.90;;;;;;4980718;28;20045;-74
2022/08/20 06:59:41;;;;;;;0.30;0.30;;;23.10;99.90;;;;;;4971244;28;20031;-74
2022/08/20 07:02:07;;;;;;;0.28;0.22;;;23.10;99.90;;;;;;4985637;28;20035;-74
2022/08/20 07:04:33;;;;;;;0.10;0.10;;;23.10;99.90;;;;;;4971045;28;20031;-72
2022/08/20 07:06:59;;;;;;;0.00;0.00;;;23.10;99.90;;;;;;4953568;28;20030;-73
2022/08/20 07:09:27;;;;;;;0.00;0.00;;;23.20;99.90;;;;;;4971151;28;20058;-72
2022/08/20 07:11:52;;;;;;;0.55;0.55;;;23.10;99.90;;;;;;4986853;28;20399;-72
2022/08/20 07:14:19;;;;;;;0.20;0.15;;;23.00;99.90;;;;;;4987144;28;20476;-73
2022/08/20 07:16:48;;;;;;;0.03;0.03;;;23.00;99.90;;;;;;4987554;28;20041;-72
2022/08/20 07:19:14;;;;;;;0.10;0.10;;;22.80;99.90;;;;;;4972323;28;20093;-73
2022/08/20 07:21:40;;;;;;;0.30;0.15;;;22.90;99.90;;;;;;4972329;28;20031;-73
2022/08/20 07:24:06;;;;;;;0.10;0.10;;;23.10;99.90;;;;;;4972156;28;20023;-73
2022/08/20 07:26:33;;;;;;;0.43;0.38;;;23.10;99.90;;;;;;4972306;28;20029;-73
2022/08/20 07:28:59;;;;;;;0.10;0.10;;;22.80;99.90;;;;;;4972174;28;20085;-72
2022/08/20 07:34:10;;;;;;;0.32;0.20;;;23.10;99.90;;;;;;4971524;28;20038;-72
2022/08/20 07:36:36;;;;;;;0.22;0.22;;;22.90;99.90;;;;;;4971910;28;20034;-73
2022/08/20 07:39:04;;;;;;;1.10;0.90;;;22.80;99.90;;;;;;4970731;28;20035;-69
2022/08/20 07:41:31;;;;;;;0.00;0.00;;;22.90;99.90;;;;;;4971822;28;20054;-68
2022/08/20 07:43:56;;;;;;;0.00;0.00;;;22.90;99.90;;;;;;4986515;28;20023;-68
2022/08/20 07:46:22;;;;;;;0.00;0.00;;;23.00;99.90;;;;;;4970402;28;20112;-67
2022/08/20 07:48:50;;;;;;;0.85;0.45;;;22.90;99.90;;;;;;4986835;28;20040;-68
2022/08/20 07:51:21;;;;;;;2.65;0.65;;;22.90;99.90;;;;;;4971916;28;20165;-68
2022/08/20 07:53:48;;;;;;;0.15;0.15;;;22.80;99.90;;;;;;4971830;28;20037;-67
2022/08/20 07:56:20;;;;;;;1.38;0.22;;;22.80;99.90;;;;;;4971847;28;20157;-68
2022/08/20 07:58:54;;;;;;;0.20;0.15;;;22.70;99.90;;;;;;4971812;28;20033;-68
2022/08/20 08:01:28;;;;;;;0.00;0.00;;;22.80;99.90;;;;;;4986375;28;20046;-68
2022/08/20 08:03:54;;;;;;;0.10;0.10;;;22.70;99.90;;;;;;4985813;28;20027;-68
2022/08/20 08:06:22;;;;;;;0.90;0.35;;;22.50;99.90;;;;;;4971707;28;20496;-67
2022/08/20 08:08:49;;;;;;;4.80;1.73;;;22.40;99.90;;;;;;4976149;23;20058;-67
2022/08/20 08:11:17;;;;;;;0.80;0.47;;;22.30;99.90;;;;;;4948358;28;20062;-66
2022/08/20 08:13:43;;;;;;;0.10;0.10;;;22.20;99.90;;;;;;4947612;29;20504;-68
2022/08/20 08:16:09;;;;;;;0.45;0.40;;;22.30;99.90;;;;;;4916655;29;20110;-68
2022/08/20 08:18:50;;;;;;;0.38;0.20;;;22.40;99.90;;;;;;4949723;29;20750;-67
2022/08/20 08:21:18;;;;;;;0.22;0.20;;;22.60;99.90;;;;;;4951319;29;20484;-67
2022/08/20 08:23:44;;;;;;;0.20;0.13;;;22.70;99.90;;;;;;4951022;29;20027;-67
2022/08/20 08:26:12;;;;;;;6.18;0.75;;;22.60;99.90;;;;;;4958122;28;20109;-68
2022/08/20 08:28:39;;;;;;;0.20;0.10;;;22.60;99.90;;;;;;4986371;28;20500;-68
2022/08/20 08:31:05;;;;;;;0.00;0.00;;;22.60;99.90;;;;;;4986389;28;20116;-67
2022/08/20 08:33:31;;;;;;;0.52;0.30;;;22.70;99.90;;;;;;4971551;28;20062;-67
2022/08/20 08:36:09;;;;;;;0.10;0.10;;;22.60;99.90;;;;;;4971726;28;20487;-67
2022/08/20 08:38:39;;;;;;;0.43;0.43;;;22.80;99.90;;;;;;4986262;28;20129;-67
2022/08/20 08:41:39;;;;;;;0.00;0.00;;;23.00;99.90;;;;;;4971593;28;20030;-68
2022/08/20 08:44:09;;;;;;;0.30;0.30;;;23.20;99.90;;;;;;4955062;28;20290;-67
2022/08/20 08:46:42;;;;;;;0.20;0.20;;;23.30;99.90;;;;;;4986068;28;20058;-68
2022/08/20 08:49:15;;;;;;;0.20;0.20;;;23.30;99.90;;;;;;4986215;28;20031;-68
2022/08/20 08:51:48;;;;;;;0.00;0.00;;;23.40;99.90;;;;;;4973614;28;20031;-68
2022/08/20 08:54:23;;;;;;;0.45;0.25;;;23.40;99.90;;;;;;4989739;28;20058;-67
2022/08/20 08:56:50;;;;;;;1.40;0.73;;;23.20;99.90;;;;;;4974963;28;20035;-68
2022/08/20 08:59:16;;;;;;;0.30;0.30;;;23.00;99.90;;;;;;4990000;28;20081;-67
2022/08/20 09:01:47;;;;;;;0.08;0.08;;;22.90;99.90;;;;;;4990109;28;20038;-67
2022/08/20 09:04:15;;;;;;;0.35;0.22;;;22.80;99.90;;;;;;4974811;28;20042;-66
2022/08/20 09:06:42;;;;;;;2.10;1.75;;;22.90;99.90;;;;;;4974932;28;20442;-66
2022/08/20 09:09:24;;;;;;;0.43;0.30;;;22.80;99.90;;;;;;4989768;28;20482;-67
2022/08/20 09:11:54;;;;;;;1.25;0.38;;;22.90;99.90;;;;;;4989512;28;20050;-67
2022/08/20 09:14:21;;;;;;;0.35;0.35;;;23.10;99.90;;;;;;4973519;28;20034;-68
2022/08/20 09:16:47;;;;;;;1.13;0.47;;;23.20;99.90;;;;;;4974788;28;20035;-67
2022/08/20 09:19:13;;;;;;;0.00;0.00;;;23.30;99.90;;;;;;4974711;28;20035;-67
2022/08/20 09:21:38;;;;;;;1.13;0.57;;;23.60;99.90;;;;;;4974860;28;20034;-67
2022/08/20 09:24:04;;;;;;;0.05;0.00;;;23.80;99.90;;;;;;4973257;28;20034;-68
2022/08/20 09:26:30;;;;;;;0.20;0.20;;;23.80;99.90;;;;;;4974819;28;20038;-68
2022/08/20 09:28:56;;;;;;;1.88;0.75;;;23.90;99.90;;;;;;4974530;28;20512;-69
2022/08/20 09:31:23;;;;;;;0.15;0.13;;;24.10;99.90;;;;;;4974478;28;20109;-68
2022/08/20 09:33:50;;;;;;;0.70;0.50;;;24.00;99.90;;;;;;4956815;28;20027;-68
2022/08/20 09:36:16;;;;;;;0.43;0.38;;;24.00;99.90;;;;;;4974654;28;20102;-69
2022/08/20 09:38:42;;;;;;;0.03;0.03;;;24.00;99.90;;;;;;4973496;28;20480;-68
2022/08/20 09:41:08;;;;;;;2.03;0.95;;;23.90;99.90;;;;;;4956978;28;20387;-68
2022/08/20 09:43:33;;;;;;;0.22;0.22;;;23.80;99.90;;;;;;4974166;28;20395;-69
2022/08/20 09:45:59;;;;;;;1.17;0.45;;;23.70;99.90;;;;;;4974228;28;20038;-69
2022/08/20 09:48:25;;;;;;;0.20;0.20;;;23.80;99.90;;;;;;4973943;28;20361;-68
2022/08/20 09:50:50;;;;;;;0.08;0.08;;;23.80;99.90;;;;;;4973415;28;20038;-68
2022/08/20 09:53:19;;;;;;;0.10;0.10;;;23.90;99.90;;;;;;4956650;28;20495;-69
2022/08/20 09:55:50;;;;;;;0.10;0.10;;;23.90;99.90;;;;;;4956375;28;20035;-66
2022/08/20 09:58:35;;;;;;;0.20;0.20;;;23.90;99.90;;;;;;4988016;28;20117;-66
2022/08/20 10:01:09;;;;;;;0.90;0.22;;;24.00;99.90;;;;;;4972310;28;20396;-66
2022/08/20 10:03:35;;;;;;;0.00;0.00;;;24.00;99.90;;;;;;4971482;28;20062;-66
2022/08/20 10:06:01;;;;;;;0.73;0.47;;;24.00;99.90;;;;;;4973617;28;20065;-68
2022/08/20 10:08:27;;;;;;;2.92;0.95;;;24.00;99.90;;;;;;4956126;28;20031;-67
2022/08/20 10:10:53;;;;;;;0.10;0.10;;;24.20;99.90;;;;;;4972215;28;20029;-67
2022/08/20 10:13:19;;;;;;;0.20;0.20;;;24.60;99.90;;;;;;4973720;28;20031;-67
2022/08/20 10:15:45;;;;;;;0.73;0.52;;;24.90;99.90;;;;;;4988437;28;20039;-67
2022/08/20 10:18:10;;;;;;;1.55;0.68;;;25.00;99.90;;;;;;4972542;28;20077;-67
2022/08/20 10:20:36;;;;;;;0.60;0.35;;;25.00;99.90;;;;;;4973735;28;20070;-67
2022/08/20 10:23:03;;;;;;;0.05;0.05;;;25.30;99.90;;;;;;4973739;28;20042;-67
2022/08/20 10:25:29;;;;;;;0.00;0.00;;;25.10;99.90;;;;;;4973578;28;20117;-67
2022/08/20 10:27:55;;;;;;;0.52;0.52;;;25.00;99.90;;;;;;4973485;28;20109;-67
2022/08/20 10:30:21;;;;;;;0.80;0.70;;;25.40;99.90;;;;;;4988166;28;20411;-67
2022/08/20 10:32:47;;;;;;;0.00;0.00;;;25.60;99.90;;;;;;4973377;28;20026;-67
2022/08/20 10:35:13;;;;;;;0.15;0.15;;;25.70;99.90;;;;;;4973456;28;20043;-67
2022/08/20 10:37:39;;;;;;;0.55;0.50;;;25.70;99.90;;;;;;4973281;28;20041;-66
2022/08/20 10:40:06;;;;;;;0.03;0.03;;;25.50;99.90;;;;;;4973261;28;20039;-67
2022/08/20 10:42:31;;;;;;;0.45;0.22;;;25.30;99.90;;;;;;4988184;28;20035;-67
2022/08/20 10:44:57;;;;;;;2.13;0.75;;;25.50;99.90;;;;;;4973325;28;20093;-66
2022/08/20 10:47:30;;;;;;;3.97;2.05;;;25.70;99.90;;;;;;4973193;28;20055;-67
2022/08/20 10:50:00;;;;;;;0.20;0.20;;;25.90;99.90;;;;;;4971540;28;20027;-67
2022/08/20 10:52:27;;;;;;;0.40;0.20;;;25.90;99.90;;;;;;4987802;28;20026;-66
2022/08/20 10:54:54;;;;;;;0.35;0.35;;;26.00;99.90;;;;;;4988005;28;20093;-67
2022/08/20 10:57:28;;;;;;;0.70;0.32;;;25.90;99.90;;;;;;4987755;28;20042;-67
2022/08/20 10:59:56;;;;;;;0.10;0.10;;;26.00;99.90;;;;;;4973038;28;20038;-67
2022/08/20 11:02:23;;;;;;;1.00;0.98;;;26.10;99.90;;;;;;4972599;28;20051;-67
2022/08/20 11:04:51;;;;;;;0.15;0.10;;;26.30;99.90;;;;;;4955488;28;20026;-67
2022/08/20 11:07:26;;;;;;;0.32;0.28;;;26.20;99.90;;;;;;4972712;28;20038;-67
2022/08/20 11:09:53;;;;;;;0.73;0.17;;;26.20;99.90;;;;;;4972679;28;20201;-67
2022/08/20 11:12:21;;;;;;;0.00;0.00;;;26.20;99.90;;;;;;4972690;28;20027;-67
2022/08/20 11:14:48;;;;;;;0.30;0.22;;;26.20;99.90;;;;;;4972441;28;20027;-67
2022/08/20 11:17:21;;;;;;;0.32;0.32;;;26.10;99.90;;;;;;4972467;28;20118;-66
2022/08/20 11:19:46;;;;;;;0.00;0.00;;;26.00;99.90;;;;;;4971461;28;20031;-67
2022/08/20 11:22:12;;;;;;;0.28;0.15;;;25.90;99.90;;;;;;4972325;28;20050;-67
2022/08/20 11:24:38;;;;;;;0.28;0.28;;;26.00;99.90;;;;;;4972557;28;20511;-67
2022/08/20 11:27:06;;;;;;;0.10;0.10;;;26.20;99.90;;;;;;4972059;28;20030;-67
2022/08/20 11:29:36;;;;;;;0.10;0.05;;;26.20;99.90;;;;;;4955262;28;20023;-67
2022/08/20 11:32:07;;;;;;;0.13;0.10;;;26.20;99.90;;;;;;4972592;28;20411;-67
2022/08/20 11:34:33;;;;;;;4.47;0.22;;;26.20;99.90;;;;;;4972243;28;20038;-67
2022/08/20 11:36:59;;;;;;;0.03;0.00;;;26.50;99.90;;;;;;4972369;28;20031;-67
2022/08/20 11:39:25;;;;;;;0.00;0.00;;;26.40;99.90;;;;;;4972106;28;20045;-67
2022/08/20 11:41:51;;;;;;;0.45;0.45;;;26.30;99.90;;;;;;4971848;28;20023;-67
2022/08/20 11:44:17;;;;;;;0.20;0.20;;;26.40;99.90;;;;;;4972006;28;20029;-66
2022/08/20 11:46:42;;;;;;;0.10;0.10;;;26.70;99.90;;;;;;4972305;28;20513;-67
2022/08/20 11:49:08;;;;;;;0.00;0.00;;;27.00;99.90;;;;;;4971839;28;20050;-67
2022/08/20 11:51:34;;;;;;;0.00;0.00;;;26.80;99.90;;;;;;4972323;28;20031;-65
2022/08/20 11:53:59;;;;;;;0.00;0.00;;;26.90;99.90;;;;;;4971145;28;20035;-66
2022/08/20 11:56:25;;;;;;;0.00;0.00;;;26.70;99.90;;;;;;4971778;28;20034;-65
2022/08/20 11:58:51;;;;;;;0.63;0.15;;;27.30;99.90;;;;;;4971662;28;20030;-66
2022/08/20 12:01:17;;;;;;;2.63;0.28;;;27.80;99.20;;;;;;4971919;28;20060;-66
2022/08/20 12:03:42;;;;;;;1.55;0.20;;;28.50;97.80;;;;;;4970695;28;20037;-66
2022/08/20 12:06:08;;;;;;;0.10;0.10;;;28.90;96.10;;;;;;4972045;28;20175;-67
2022/08/20 12:08:34;;;;;;;0.00;0.00;;;28.90;95.90;;;;;;4971801;28;20490;-66
2022/08/20 12:11:01;;;;;;;2.83;0.45;;;28.60;95.90;;;;;;4967316;28;20047;-66
2022/08/20 12:13:33;;;;;;;0.00;0.00;;;28.70;95.20;;;;;;4952857;29;20031;-66
2022/08/20 12:16:00;;;;;;;0.00;0.00;;;29.30;94.30;;;;;;4952957;29;20042;-66
2022/08/20 12:18:25;;;;;;;0.00;0.00;;;29.80;92.60;;;;;;4983658;28;20023;-66
2022/08/20 12:20:51;;;;;;;0.00;0.00;;;29.70;91.10;;;;;;4952575;29;20114;-66
2022/08/20 12:23:17;;;;;;;0.00;0.00;;;29.50;90.70;;;;;;4952154;29;20483;-66
2022/08/20 12:25:43;;;;;;;0.00;0.00;;;29.30;90.30;;;;;;4955077;28;20146;-66
2022/08/20 12:28:11;;;;;;;0.00;0.00;;;29.60;90.00;;;;;;4975771;28;20053;-66
2022/08/20 12:30:38;;;;;;;0.00;0.00;;;29.00;88.40;;;;;;4990621;28;20030;-66
2022/08/20 12:33:03;;;;;;;0.00;0.00;;;29.10;88.30;;;;;;4975631;28;20070;-67
2022/08/20 12:35:30;;;;;;;0.03;0.03;;;29.10;89.60;;;;;;4975563;28;20081;-66
2022/08/20 12:37:57;;;;;;;0.00;0.00;;;29.40;88.30;;;;;;4975596;28;20037;-65
2022/08/20 12:40:26;;;;;;;0.20;0.20;;;29.20;87.60;;;;;;4990352;28;20691;-66
2022/08/20 12:42:53;;;;;;;0.00;0.00;;;28.90;87.10;;;;;;4975386;28;20039;-66
2022/08/20 12:45:19;;;;;;;0.00;0.00;;;29.30;87.10;;;;;;4990288;28;20031;-66
2022/08/20 12:47:48;;;;;;;0.00;0.00;;;29.10;86.80;;;;;;4975410;28;20098;-65
2022/08/20 12:50:22;;;;;;;0.00;0.00;;;28.60;86.00;;;;;;4989921;28;20033;-66
2022/08/20 12:52:48;;;;;;;30.02;0.40;;;28.70;84.70;;;;;;4975206;28;20491;-66
2022/08/20 12:55:18;;;;;;;0.00;0.00;;;29.10;84.60;;;;;;4975389;28;20041;-66
2022/08/20 12:57:57;;;;;;;0.00;0.00;;;28.80;83.30;;;;;;4989922;28;20031;-66
2022/08/20 13:00:36;;;;;;;0.15;0.15;;;29.20;82.50;;;;;;4974931;28;20554;-66
2022/08/20 13:03:05;;;;;;;0.00;0.00;;;29.70;79.00;;;;;;4975285;28;20082;-66